Time;durP1;ratioP1;P1;durP2;ratioP2;P2;SDS_P1;SDS_P2;PMS_P1;PMS_P2;Temp;Humidity;BMP_temperature;BMP_pressure;BME280_temperature;BME280_humidity;BME280_pressure;Samples;Min_cycle;Max_cycle;Signal;HPM_P1;HPM_P2
2021/11/01 00:01:04;;;;;;;10.05;6.68;;;;;;;8.59;53.70;97817.28;5072812;28;20033;-68
2021/11/01 00:03:30;;;;;;;;;;;;;;;8.59;53.63;97826.31;5074251;28;20399;-68
2021/11/01 00:05:55;;;;;;;11.85;7.45;;;;;;;8.60;53.49;97813.44;5074757;28;19913;-68
2021/11/01 00:08:21;;;;;;;14.02;7.82;;;;;;;8.59;53.63;97814.53;5092205;28;20733;-67
2021/11/01 00:10:46;;;;;;;14.20;7.50;;;;;;;8.59;53.53;97812.63;5080869;28;20094;-67
2021/11/01 00:13:12;;;;;;;16.35;7.88;;;;;;;8.61;53.40;97815.06;5074617;28;20020;-67
2021/11/01 00:15:38;;;;;;;14.98;8.60;;;;;;;8.61;53.42;97824.09;5074426;28;20056;-68
2021/11/01 00:18:03;;;;;;;14.05;8.75;;;;;;;8.63;53.72;97819.13;5055648;28;20163;-68
2021/11/01 00:20:29;;;;;;;12.93;8.07;;;;;;;8.64;53.76;97803.53;5074106;28;20021;-67
2021/11/01 00:22:54;;;;;;;12.45;7.22;;;;;;;8.64;53.67;97814.47;5074058;28;20473;-68
2021/11/01 00:25:21;;;;;;;14.30;8.18;;;;;;;8.64;53.59;97809.00;5058959;28;20031;-67
2021/11/01 00:27:47;;;;;;;20.58;9.93;;;;;;;8.63;53.13;97807.38;5092404;28;20044;-68
2021/11/01 00:30:13;;;;;;;17.88;9.15;;;;;;;8.63;53.51;97802.72;5092749;28;20031;-68
2021/11/01 00:32:39;;;;;;;17.55;8.02;;;;;;;8.64;53.54;97800.78;5092194;28;20467;-68
2021/11/01 00:35:05;;;;;;;15.82;8.45;;;;;;;8.64;53.52;97798.06;5092408;28;20524;-68
2021/11/01 00:37:31;;;;;;;13.95;7.63;;;;;;;8.65;53.82;97791.47;5092641;28;20017;-68
2021/11/01 00:39:59;;;;;;;33.03;8.27;;;;;;;8.64;53.73;97789.88;5073328;28;20029;-68
2021/11/01 00:42:25;;;;;;;11.93;6.60;;;;;;;8.64;53.89;97779.75;5073265;28;20028;-68
2021/11/01 00:44:50;;;;;;;11.50;6.70;;;;;;;8.64;53.89;97771.56;5086776;28;20024;-68
2021/11/01 00:47:16;;;;;;;9.57;6.80;;;;;;;8.66;54.50;97776.72;5078436;28;20020;-68
2021/11/01 00:49:42;;;;;;;11.93;6.95;;;;;;;8.66;54.25;97763.03;5071198;28;20024;-68
2021/11/01 00:52:08;;;;;;;12.70;6.72;;;;;;;8.69;54.19;97759.72;5071900;28;20031;-68
2021/11/01 00:54:36;;;;;;;11.30;6.80;;;;;;;8.70;54.15;97753.13;5054069;28;20150;-67
2021/11/01 00:57:03;;;;;;;11.02;6.65;;;;;;;8.71;53.96;97754.75;5072238;28;20496;-68
2021/11/01 00:59:28;;;;;;;14.80;6.78;;;;;;;8.75;54.37;97749.50;5071622;28;20028;-68
2021/11/01 01:01:53;;;;;;;13.52;6.75;;;;;;;8.75;54.53;97742.09;5078533;28;20015;-68
2021/11/01 01:04:19;;;;;;;9.52;4.90;;;;;;;8.77;54.93;97739.88;5079471;28;20083;-68
2021/11/01 01:06:45;;;;;;;10.57;6.28;;;;;;;8.86;54.87;97739.19;5079957;28;20027;-68
2021/11/01 01:09:10;;;;;;;9.90;6.15;;;;;;;8.93;54.10;97750.53;5081523;28;20032;-68
2021/11/01 01:11:36;;;;;;;10.38;6.47;;;;;;;8.99;54.57;97743.03;5078006;28;20024;-68
2021/11/01 01:14:02;;;;;;;11.00;6.88;;;;;;;9.03;54.41;97735.84;5090963;28;20507;-68
2021/11/01 01:16:31;;;;;;;10.77;5.65;;;;;;;9.05;54.34;97731.69;5090884;28;20027;-70
2021/11/01 01:18:59;;;;;;;10.27;6.50;;;;;;;9.09;54.39;97735.44;5077004;28;20059;-69
2021/11/01 01:24:10;;;;;;;9.43;6.18;;;;;;;9.18;54.21;97724.56;5079341;28;20116;-70
2021/11/01 01:26:36;;;;;;;11.48;6.60;;;;;;;9.24;54.58;97723.34;5081646;28;20052;-70
2021/11/01 01:29:03;;;;;;;11.35;6.45;;;;;;;9.29;54.30;97725.19;5081605;28;20057;-70
2021/11/01 01:31:29;;;;;;;10.63;6.30;;;;;;;9.37;53.66;97720.91;5080413;28;20393;-69
2021/11/01 01:33:54;;;;;;;10.85;6.13;;;;;;;9.41;53.57;97718.38;5079919;28;20380;-70
2021/11/01 01:36:20;;;;;;;10.50;6.18;;;;;;;9.44;53.99;97724.06;5081404;28;20138;-70
2021/11/01 01:38:50;;;;;;;10.05;5.80;;;;;;;9.47;54.28;97714.41;5077224;28;20096;-70
2021/11/01 01:41:15;;;;;;;10.52;5.93;;;;;;;9.53;53.77;97722.22;5079256;28;20031;-70
2021/11/01 01:43:52;;;;;;;9.63;5.70;;;;;;;9.60;53.15;97720.97;5081477;28;20044;-69
2021/11/01 01:46:19;;;;;;;10.70;6.18;;;;;;;9.62;53.31;97718.72;5081167;28;20028;-68
2021/11/01 01:48:44;;;;;;;10.60;6.38;;;;;;;9.62;53.21;97722.28;5079710;28;20043;-68
2021/11/01 01:51:10;;;;;;;7.70;5.38;;;;;;;9.63;53.39;97723.09;5080187;28;20486;-67
2021/11/01 01:53:37;;;;;;;10.93;6.53;;;;;;;9.63;53.06;97720.34;5079899;28;20073;-68
2021/11/01 01:56:04;;;;;;;9.15;6.68;;;;;;;9.63;53.26;97721.19;5081669;28;20012;-69
2021/11/01 01:58:34;;;;;;;8.02;5.90;;;;;;;9.63;53.69;97720.34;5079770;28;20024;-69
2021/11/01 02:01:09;;;;;;;8.02;5.60;;;;;;;9.62;52.95;97735.97;5059451;28;20040;-68
2021/11/01 02:03:37;;;;;;;9.48;6.30;;;;;;;9.64;53.00;97727.44;5078672;28;20020;-68
2021/11/01 02:06:09;;;;;;;9.10;6.72;;;;;;;9.65;53.38;97707.16;5080730;28;20023;-69
2021/11/01 02:08:50;;;;;;;7.28;5.85;;;;;;;9.65;53.36;97704.44;5079204;28;20430;-68
2021/11/01 02:11:26;;;;;;;10.88;5.65;;;;;;;9.68;53.49;97701.06;5084615;28;20511;-68
2021/11/01 02:13:57;;;;;;;9.23;6.25;;;;;;;9.67;52.83;97710.41;5082415;28;20031;-69
2021/11/01 02:16:23;;;;;;;10.10;6.40;;;;;;;9.66;53.05;97708.78;5073952;28;20507;-68
2021/11/01 02:18:51;;;;;;;8.98;6.60;;;;;;;9.66;52.92;97698.66;5070611;28;20016;-68
2021/11/01 02:21:44;;;;;;;9.00;6.43;;;;;;;9.67;53.02;97699.44;5071673;28;20050;-68
2021/11/01 02:24:17;;;;;;;11.10;6.30;;;;;;;9.64;53.54;97700.06;5088900;28;20047;-68
2021/11/01 02:26:43;;;;;;;12.20;6.60;;;;;;;9.63;52.79;97701.19;5089393;28;20024;-68
2021/11/01 02:29:10;;;;;;;11.80;6.60;;;;;;;9.60;53.39;97702.63;5089822;28;20044;-67
2021/11/01 02:31:37;;;;;;;8.90;6.05;;;;;;;9.59;53.53;97711.97;5090047;28;20099;-68
2021/11/01 02:34:03;;;;;;;11.20;6.72;;;;;;;9.59;53.20;97708.38;5089558;28;20442;-68
2021/11/01 02:36:29;;;;;;;9.35;6.30;;;;;;;9.57;52.92;97707.91;5071600;28;20103;-67
2021/11/01 02:38:56;;;;;;;10.85;6.90;;;;;;;9.55;53.35;97715.63;5070430;28;20028;-67
2021/11/01 02:41:28;;;;;;;8.77;6.40;;;;;;;9.52;53.02;97717.88;5070329;28;20025;-67
2021/11/01 02:44:12;;;;;;;9.25;5.85;;;;;;;9.49;53.21;97721.22;5069813;28;20024;-68
2021/11/01 02:46:39;;;;;;;9.88;5.82;;;;;;;9.47;53.25;97720.72;5074371;28;20050;-68
2021/11/01 02:49:06;;;;;;;11.35;6.20;;;;;;;9.43;53.43;97719.69;5084703;28;20135;-68
2021/11/01 02:51:32;;;;;;;9.32;6.28;;;;;;;9.42;53.79;97722.72;5080565;28;20032;-68
2021/11/01 02:54:00;;;;;;;10.45;6.93;;;;;;;9.42;53.76;97714.50;5079593;28;20070;-69
2021/11/01 02:56:26;;;;;;;11.88;6.10;;;;;;;9.42;53.14;97717.25;5080572;28;20028;-68
2021/11/01 02:58:52;;;;;;;10.18;6.80;;;;;;;9.41;53.65;97721.09;5081034;28;20024;-67
2021/11/01 03:01:19;;;;;;;12.38;7.68;;;;;;;9.39;53.73;97716.75;5079511;28;20110;-69
2021/11/01 03:03:46;;;;;;;11.10;6.65;;;;;;;9.38;52.82;97711.59;5083159;28;20104;-68
2021/11/01 03:06:15;;;;;;;11.02;6.50;;;;;;;9.39;53.42;97714.00;5084491;28;20092;-68
2021/11/01 03:08:41;;;;;;;10.23;6.47;;;;;;;9.36;53.30;97720.13;5084873;28;20032;-69
2021/11/01 03:11:08;;;;;;;11.63;6.85;;;;;;;9.31;53.24;97720.22;5083042;28;20027;-68
2021/11/01 03:13:34;;;;;;;11.13;6.80;;;;;;;9.23;53.44;97718.19;5083984;28;20020;-68
2021/11/01 03:16:04;;;;;;;11.80;6.78;;;;;;;9.16;53.16;97702.22;5084659;28;20033;-69
2021/11/01 03:18:36;;;;;;;11.27;6.55;;;;;;;9.13;53.51;97699.25;5085090;28;20032;-68
2021/11/01 03:21:04;;;;;;;11.40;7.25;;;;;;;9.09;53.62;97693.59;5084100;28;20476;-69
2021/11/01 03:23:33;;;;;;;11.65;7.00;;;;;;;9.06;53.64;97691.47;5083318;28;20028;-68
2021/11/01 03:26:01;;;;;;;10.27;6.95;;;;;;;9.03;53.92;97698.34;5084112;28;20170;-68
2021/11/01 03:28:29;;;;;;;10.18;6.97;;;;;;;9.00;53.50;97692.69;5083310;28;20055;-68
2021/11/01 03:30:58;;;;;;;12.82;6.70;;;;;;;8.97;53.48;97690.56;5084032;28;20028;-68
2021/11/01 03:33:26;;;;;;;10.35;6.43;;;;;;;8.94;54.08;97692.00;5084532;28;20021;-68
2021/11/01 03:35:54;;;;;;;11.10;6.60;;;;;;;8.91;53.86;97684.41;5085042;28;20032;-68
2021/11/01 03:38:21;;;;;;;10.20;6.60;;;;;;;8.90;53.84;97686.31;5076127;28;20115;-68
2021/11/01 03:40:48;;;;;;;12.52;6.05;;;;;;;8.90;53.73;97674.56;5090428;28;20468;-68
2021/11/01 03:43:23;;;;;;;7.45;5.72;;;;;;;8.89;53.81;97672.94;5081809;28;20041;-68
2021/11/01 03:45:50;;;;;;;11.98;6.57;;;;;;;8.89;54.29;97675.69;5083330;28;20458;-68
2021/11/01 03:48:18;;;;;;;10.05;6.30;;;;;;;8.89;53.96;97667.47;5076568;28;20443;-68
2021/11/01 03:50:56;;;;;;;8.48;6.13;;;;;;;8.91;54.05;97674.25;5091952;28;20077;-69
2021/11/01 03:53:22;;;;;;;9.88;6.25;;;;;;;8.92;53.96;97655.94;5093188;28;20035;-68
2021/11/01 03:55:48;;;;;;;12.00;7.60;;;;;;;8.92;54.33;97670.41;5080049;28;20032;-68
2021/11/01 03:58:13;;;;;;;13.05;7.80;;;;;;;8.93;54.34;97660.28;5076837;28;20389;-68
2021/11/01 04:00:40;;;;;;;10.80;7.32;;;;;;;8.93;53.79;97669.28;5079583;28;20024;-68
2021/11/01 04:03:06;;;;;;;11.65;7.60;;;;;;;8.95;54.49;97669.00;5075039;28;20047;-68
2021/11/01 04:05:32;;;;;;;12.77;7.45;;;;;;;8.94;54.03;97656.44;5075200;28;20381;-68
2021/11/01 04:07:58;;;;;;;12.65;6.93;;;;;;;8.94;54.34;97664.66;5074975;28;20138;-68
2021/11/01 04:10:24;;;;;;;11.25;6.75;;;;;;;8.92;54.29;97656.72;5086412;28;20480;-68
2021/11/01 04:12:50;;;;;;;10.57;6.78;;;;;;;8.90;54.30;97653.50;5094327;28;20016;-68
2021/11/01 04:15:20;;;;;;;9.00;6.47;;;;;;;8.88;53.68;97647.50;5086951;28;20031;-68
2021/11/01 04:17:47;;;;;;;11.10;6.55;;;;;;;8.87;54.23;97650.56;5082841;28;20034;-69
2021/11/01 04:22:46;;;;;;;12.35;6.93;;;;;;;8.78;54.28;97656.75;5082039;28;20448;-68
2021/11/01 04:25:12;;;;;;;11.43;6.85;;;;;;;8.74;54.09;97657.66;5082204;28;20028;-68
2021/11/01 04:27:38;;;;;;;10.77;7.22;;;;;;;8.69;54.08;97647.63;5083161;28;20035;-68
2021/11/01 04:30:06;;;;;;;9.77;6.35;;;;;;;8.64;53.74;97653.19;5064938;28;20024;-68
2021/11/01 04:32:35;;;;;;;10.07;6.65;;;;;;;8.59;54.22;97642.34;5084775;28;20024;-69
2021/11/01 04:37:29;;;;;;;11.07;6.95;;;;;;;8.45;54.25;97643.13;5082687;28;20040;-68
2021/11/01 04:53:09;;;;;;;16.45;8.85;;;;;;;7.74;54.19;97643.28;5082613;28;20553;-69
2021/11/01 04:55:34;;;;;;;11.88;8.48;;;;;;;7.57;54.61;97647.34;5081815;28;20028;-69
2021/11/01 04:58:01;;;;;;;13.30;8.68;;;;;;;7.40;55.12;97642.44;5081511;28;20388;-68
2021/11/01 05:00:26;;;;;;;11.68;7.90;;;;;;;7.25;55.04;97640.75;5084171;28;20100;-68
2021/11/01 05:03:26;;;;;;;12.35;8.20;;;;;;;7.11;55.59;97637.94;5082935;28;20127;-68
2021/11/01 05:05:52;;;;;;;14.23;8.75;;;;;;;7.00;55.37;97645.41;5083622;28;20031;-68
2021/11/01 05:08:22;;;;;;;12.15;8.27;;;;;;;6.92;55.60;97639.81;5082594;28;20107;-68
2021/11/01 05:10:50;;;;;;;13.95;8.35;;;;;;;6.84;55.50;97641.28;5081585;28;20032;-68
2021/11/01 05:13:22;;;;;;;15.25;9.38;;;;;;;6.75;55.71;97643.81;5082054;28;20073;-68
2021/11/01 05:15:53;;;;;;;12.20;7.97;;;;;;;6.64;55.93;97642.34;5083619;28;20055;-68
2021/11/01 05:18:29;;;;;;;12.63;8.77;;;;;;;6.57;56.18;97641.88;5082407;28;20031;-68
2021/11/01 05:21:05;;;;;;;14.82;8.82;;;;;;;6.53;56.39;97639.72;5081414;28;20024;-68
2021/11/01 05:23:35;;;;;;;14.50;8.48;;;;;;;6.55;56.29;97640.25;5083843;28;20038;-68
2021/11/01 05:31:15;;;;;;;13.75;8.10;;;;;;;6.61;56.89;97646.44;5082085;28;20040;-68
2021/11/01 05:34:02;;;;;;;12.65;7.63;;;;;;;6.58;56.74;97643.50;5081372;28;20032;-68
2021/11/01 05:36:28;;;;;;;11.70;7.35;;;;;;;6.56;56.47;97641.03;5082895;28;20036;-68
2021/11/01 05:38:54;;;;;;;13.85;8.52;;;;;;;6.54;56.67;97635.06;5081338;28;20051;-67
2021/11/01 05:41:19;;;;;;;18.33;9.48;;;;;;;6.55;56.68;97625.81;5081800;28;20463;-68
2021/11/01 05:43:45;;;;;;;14.82;9.00;;;;;;;6.58;57.02;97633.41;5082261;28;20028;-68
2021/11/01 05:46:12;;;;;;;16.35;9.05;;;;;;;6.63;57.06;97627.88;5081290;28;20082;-68
2021/11/01 05:48:38;;;;;;;14.48;8.90;;;;;;;6.68;57.51;97632.50;5081647;28;20460;-68
2021/11/01 05:51:04;;;;;;;14.02;8.50;;;;;;;6.71;57.40;97631.91;5081666;28;20020;-68
2021/11/01 05:53:35;;;;;;;12.45;8.18;;;;;;;6.67;57.40;97642.56;5083664;28;20077;-68
2021/11/01 06:04:32;;;;;;;16.90;9.07;;;;;;;6.62;57.76;97639.88;5082752;28;20069;-68
2021/11/01 06:14:37;;;;;;;16.42;9.30;;;;;;;6.89;57.60;97646.66;5081373;28;20051;-68
2021/11/01 06:17:03;;;;;;;16.55;9.50;;;;;;;6.95;57.88;97648.19;5081758;28;20020;-68
2021/11/01 06:19:28;;;;;;;16.52;9.85;;;;;;;7.03;58.01;97644.03;5081817;28;20153;-68
2021/11/01 06:21:54;;;;;;;19.13;10.85;;;;;;;7.09;57.52;97639.31;5081206;28;20543;-69
2021/11/01 06:25:06;;;;;;;19.38;11.05;;;;;;;7.17;57.88;97637.84;5080806;28;20020;-68
2021/11/01 06:27:09;;;;;;;19.23;11.20;;;;;;;7.26;57.97;97641.53;5072072;28;20264;-69
2021/11/01 06:29:48;;;;;;;16.30;10.45;;;;;;;7.34;58.17;97648.22;5080654;28;20044;-69
2021/11/01 06:50:44;;;;;;;22.33;12.52;;;;;;;7.82;57.70;97639.06;5087904;28;20043;-68
2021/11/01 06:54:12;;;;;;;23.67;13.18;;;;;;;7.90;57.47;97644.63;5095658;28;20476;-67
2021/11/01 07:14:51;;;;;;;41.78;23.88;;;;;;;8.66;57.49;97628.31;5076293;28;20550;-69
2021/11/01 07:25:58;;;;;;;25.17;15.85;;;;;;;9.07;57.24;97635.66;5075721;28;20060;-68
2021/11/01 08:38:41;;;;;;;14.00;8.82;;;;;;;11.76;52.11;97596.38;5074791;28;20094;-69
2021/11/01 08:44:24;;;;;;;13.45;8.25;;;;;;;11.94;50.75;97598.28;5090823;28;20518;-68
2021/11/01 08:51:52;;;;;;;13.63;7.30;;;;;;;12.15;50.49;97582.72;5075358;28;20481;-69
2021/11/01 09:03:03;;;;;;;12.45;8.20;;;;;;;12.44;50.33;97589.41;5094396;28;20093;-68
2021/11/01 09:13:52;;;;;;;12.80;8.20;;;;;;;12.83;49.36;97581.13;5086625;28;20097;-68
2021/11/01 09:24:42;;;;;;;11.68;7.90;;;;;;;13.12;47.13;97573.19;5087023;28;20036;-68
2021/11/01 09:27:11;;;;;;;11.75;8.00;;;;;;;13.20;47.88;97575.06;5092744;28;20035;-68
2021/11/01 09:42:54;;;;;;;17.40;10.50;;;;;;;13.62;47.78;97560.47;5073197;28;20582;-68
2021/11/01 09:45:24;;;;;;;12.52;7.75;;;;;;;13.68;47.00;97554.41;5071318;28;20055;-68
2021/11/01 09:47:51;;;;;;;14.73;9.02;;;;;;;13.74;47.31;97552.25;5072629;28;20070;-67
2021/11/01 09:50:20;;;;;;;14.52;8.57;;;;;;;13.82;47.18;97554.13;5071490;28;20103;-67
2021/11/01 09:52:55;;;;;;;12.90;7.20;;;;;;;13.89;46.67;97558.25;5079365;28;20031;-68
2021/11/01 09:56:07;;;;;;;10.20;7.18;;;;;;;13.95;46.73;97546.69;5074963;28;20286;-73
2021/11/01 10:00:55;;;;;;;14.52;7.53;;;;;;;14.04;47.06;97543.03;5080503;28;20039;-67
2021/11/01 10:03:51;;;;;;;11.75;7.35;;;;;;;14.10;47.12;97536.94;5074716;28;20119;-67
2021/11/01 10:06:21;;;;;;;14.30;7.68;;;;;;;14.19;47.15;97542.34;5049159;28;20370;-68
2021/11/01 10:08:51;;;;;;;12.65;7.50;;;;;;;14.24;47.06;97538.59;5092507;28;20028;-68
2021/11/01 10:11:18;;;;;;;;;;;;;;;14.28;47.15;97537.56;5079843;28;20024;-67
2021/11/01 10:13:49;;;;;;;11.18;7.38;;;;;;;14.32;46.96;97545.13;5072244;28;19912;-68
2021/11/01 10:19:34;;;;;;;11.65;6.93;;;;;;;14.48;46.50;97534.22;5092470;28;20092;-67
2021/11/01 10:22:03;;;;;;;11.70;6.72;;;;;;;14.54;46.51;97535.59;5092502;28;20028;-68
2021/11/01 10:24:38;;;;;;;11.32;7.20;;;;;;;14.62;46.49;97522.84;5091373;28;20032;-67
2021/11/01 10:27:12;;;;;;;11.27;7.22;;;;;;;14.70;46.26;97521.94;5075778;28;20052;-68
2021/11/01 10:29:57;;;;;;;10.93;6.45;;;;;;;14.83;45.99;97517.19;5071034;28;20051;-68
2021/11/01 10:32:28;;;;;;;11.45;5.80;;;;;;;14.96;45.68;97521.56;5072000;28;20029;-67
2021/11/01 10:35:11;;;;;;;9.27;5.65;;;;;;;15.05;45.50;97513.13;5071787;28;20074;-67
2021/11/01 10:37:37;;;;;;;8.50;5.30;;;;;;;15.13;45.15;97511.38;5073997;28;20025;-68
2021/11/01 10:40:07;;;;;;;9.90;5.88;;;;;;;15.17;45.25;97507.59;5086323;28;20050;-67
2021/11/01 10:42:49;;;;;;;8.32;5.30;;;;;;;15.24;45.50;97512.50;5086982;28;20369;-64
2021/11/01 11:12:57;;;;;;;8.52;5.72;;;;;;;15.90;45.19;97492.97;5086969;28;20046;-65
2021/11/01 11:15:23;;;;;;;10.63;5.32;;;;;;;15.93;45.66;97486.75;5060248;28;20075;-65
2021/11/01 11:25:47;;;;;;;9.35;6.10;;;;;;;16.08;44.34;97471.31;5065210;28;20041;-66
2021/11/01 11:31:30;;;;;;;8.70;5.85;;;;;;;16.15;44.37;97474.25;5067900;28;20113;-66
2021/11/01 11:37:20;;;;;;;7.75;4.97;;;;;;;16.20;45.00;97474.00;5066321;28;20060;-65
2021/11/01 11:43:09;;;;;;;8.70;5.65;;;;;;;16.38;44.38;97468.06;5027003;28;20041;-65
2021/11/01 11:48:23;;;;;;;7.70;5.50;;;;;;;16.49;44.26;97458.06;5067255;28;20047;-65
2021/11/01 11:50:52;;;;;;;9.00;6.55;;;;;;;16.58;44.20;97462.59;5063670;28;20028;-65
2021/11/01 11:53:24;;;;;;;10.82;6.32;;;;;;;16.62;44.14;97457.94;5064044;28;20424;-65
2021/11/01 11:56:07;;;;;;;8.55;5.70;;;;;;;16.66;43.71;97450.53;5063677;28;20131;-65
2021/11/01 11:58:40;;;;;;;10.05;7.10;;;;;;;16.71;44.27;97444.69;5057501;28;20111;-65
2021/11/01 12:01:21;;;;;;;9.82;6.03;;;;;;;16.81;43.97;97454.41;5056887;28;20110;-66
2021/11/01 12:03:46;;;;;;;9.63;5.78;;;;;;;16.86;43.64;97445.00;5064976;28;20035;-66
2021/11/01 12:06:14;;;;;;;10.27;6.30;;;;;;;16.89;43.78;97445.09;5065720;28;20043;-66
2021/11/01 12:08:44;;;;;;;9.45;6.00;;;;;;;16.94;43.81;97444.00;5065992;28;20025;-67
2021/11/01 12:19:17;;;;;;;8.23;5.25;;;;;;;17.65;42.93;97435.50;5057715;28;20491;-67
2021/11/01 12:21:49;;;;;;;7.82;5.63;;;;;;;17.67;42.94;97427.63;5057165;28;20040;-66
2021/11/01 12:24:21;;;;;;;9.27;6.30;;;;;;;17.66;42.61;97420.47;5064040;28;20032;-66
2021/11/01 12:26:48;;;;;;;7.63;6.35;;;;;;;17.65;42.72;97426.38;5064609;28;20069;-64
2021/11/01 12:29:15;;;;;;;11.10;6.95;;;;;;;17.65;43.00;97435.50;5064190;28;20040;-65
2021/11/01 12:31:42;;;;;;;8.00;5.32;;;;;;;17.69;42.87;97424.50;5065075;28;20275;-65
2021/11/01 12:34:30;;;;;;;9.93;7.22;;;;;;;17.69;42.44;97433.59;5044947;28;20032;-67
2021/11/01 12:37:15;;;;;;;10.52;7.13;;;;;;;17.71;42.11;97422.94;5064879;28;20710;-66
2021/11/01 12:39:49;;;;;;;13.98;9.00;;;;;;;17.75;42.55;97422.97;5057325;28;20024;-65
2021/11/01 12:58:54;;;;;;;7.65;5.82;;;;;;;19.82;39.68;97428.53;5066303;28;20688;-65
2021/11/01 13:01:21;;;;;;;9.02;7.07;;;;;;;20.02;38.32;97415.22;5060781;28;20033;-65
2021/11/01 13:03:54;;;;;;;9.30;6.38;;;;;;;20.23;37.86;97420.16;5036422;28;20603;-64
2021/11/01 13:07:16;;;;;;;10.57;6.80;;;;;;;20.90;38.08;97414.63;5062892;28;20062;-64
2021/11/01 13:09:24;;;;;;;9.70;5.10;;;;;;;21.58;35.37;97425.22;5060185;28;20370;-64
2021/11/01 13:19:50;;;;;;;9.05;5.80;;;;;;;23.41;33.14;97410.59;5063373;28;20151;-65
2021/11/01 13:22:31;;;;;;;8.60;5.85;;;;;;;23.33;31.58;97407.06;5057021;28;20563;-65
2021/11/01 13:38:47;;;;;;;10.65;6.07;;;;;;;22.68;32.64;97421.25;5065766;28;20512;-65
2021/11/01 13:41:29;;;;;;;9.52;6.70;;;;;;;22.24;33.37;97420.50;5062554;28;20031;-65
2021/11/01 13:44:13;;;;;;;10.60;7.68;;;;;;;21.93;34.39;97411.72;5037328;28;20455;-65
2021/11/01 13:46:50;;;;;;;9.38;6.47;;;;;;;21.64;34.48;97417.25;5057289;28;20853;-65
2021/11/01 13:49:18;;;;;;;7.90;6.20;;;;;;;21.53;34.36;97412.44;5063565;28;20568;-65
2021/11/01 13:51:46;;;;;;;8.35;5.65;;;;;;;21.23;34.02;97418.34;5064223;28;20111;-65
2021/11/01 13:56:45;;;;;;;6.65;5.03;;;;;;;21.03;32.80;97413.06;5064013;28;20119;-64
2021/11/01 14:15:17;;;;;;;6.68;4.85;;;;;;;19.47;35.98;97413.91;5063229;28;20040;-64
2021/11/01 14:26:51;;;;;;;10.05;5.95;;;;;;;18.80;36.76;97412.72;5067995;28;20028;-64
2021/11/01 14:36:28;;;;;;;11.57;7.32;;;;;;;17.35;39.16;97405.66;5063522;28;20039;-63
2021/11/01 15:21:08;;;;;;;16.02;9.52;;;;;;;14.62;44.65;97398.66;5068275;28;20071;-64
2021/11/01 16:20:09;;;;;;;49.08;24.23;;;;;;;11.42;51.09;97408.53;5034467;28;20034;-65
2021/11/01 16:22:36;;;;;;;50.30;24.15;;;;;;;11.36;50.86;97409.06;5027779;28;20392;-65
2021/11/01 16:25:03;;;;;;;70.95;33.28;;;;;;;11.25;50.83;97409.41;5024775;28;20029;-66
2021/11/01 16:27:29;;;;;;;70.55;34.75;;;;;;;11.14;51.52;97408.94;5027062;28;20052;-66
2021/11/01 16:30:03;;;;;;;80.20;39.13;;;;;;;11.06;51.48;97415.25;5022456;28;20029;-67
2021/11/01 16:32:42;;;;;;;92.63;49.65;;;;;;;10.93;51.72;97408.81;5018882;28;20582;-66
2021/11/01 16:35:09;;;;;;;93.70;48.58;;;;;;;10.88;51.84;97411.72;5020720;28;20021;-64
2021/11/01 16:40:09;;;;;;;88.18;43.92;;;;;;;10.79;52.01;97408.19;5027911;28;20140;-67
2021/11/01 16:42:36;;;;;;;80.80;39.70;;;;;;;10.77;52.38;97424.16;5027706;28;20057;-65
2021/11/01 16:47:45;;;;;;;55.40;30.40;;;;;;;10.74;52.77;97413.84;5026563;28;20041;-66
2021/11/01 16:50:12;;;;;;;55.78;29.08;;;;;;;10.73;53.18;97415.75;5025636;28;20025;-66
2021/11/01 16:52:41;;;;;;;56.55;27.55;;;;;;;10.76;53.15;97411.59;5017143;28;20068;-65
2021/11/01 16:55:22;;;;;;;42.67;25.30;;;;;;;10.79;53.18;97403.50;5018099;28;20029;-65
2021/11/01 16:57:58;;;;;;;44.67;23.63;;;;;;;10.86;53.42;97413.97;5025583;28;20566;-65
2021/11/01 17:11:00;;;;;;;37.75;21.77;;;;;;;10.94;53.35;97413.16;5027426;28;20036;-65
2021/11/01 17:21:46;;;;;;;50.17;22.48;;;;;;;10.96;52.99;97416.41;5026064;28;20179;-65
2021/11/01 17:24:57;;;;;;;44.50;22.77;;;;;;;10.95;53.67;97412.03;5027458;28;20381;-65
2021/11/01 17:27:30;;;;;;;41.03;21.48;;;;;;;10.91;53.25;97413.81;5022068;28;20982;-65
2021/11/01 18:39:58;;;;;;;73.68;37.63;;;;;;;9.79;56.68;97381.25;5048124;28;20031;-66
2021/11/01 18:53:09;;;;;;;52.83;27.75;;;;;;;10.15;56.15;97377.50;5048711;28;20036;-66
2021/11/01 18:55:36;;;;;;;49.53;28.08;;;;;;;10.15;56.58;97387.63;5048806;28;20668;-67
2021/11/01 18:58:03;;;;;;;68.35;37.17;;;;;;;10.13;56.78;97379.75;5049138;28;20021;-66
2021/11/01 19:00:40;;;;;;;65.53;36.83;;;;;;;10.19;55.88;97380.38;5048561;28;20025;-66
2021/11/01 19:03:07;;;;;;;67.38;34.20;;;;;;;10.21;56.81;97375.41;5048188;28;20462;-66
2021/11/01 20:03:28;;;;;;;26.00;17.08;;;;;;;11.40;55.93;97357.84;5054154;28;20512;-66
2021/11/01 20:06:06;;;;;;;27.95;15.85;;;;;;;11.44;56.36;97354.09;5053264;28;20373;-66
2021/11/01 21:24:32;;;;;;;35.85;18.65;;;;;;;11.52;56.06;97359.91;5043876;28;20126;-65
2021/11/01 21:26:29;;;;;;;17.75;11.13;;;;;;;11.63;56.02;97333.69;5021957;28;20551;-65
2021/11/01 21:28:54;;;;;;;17.63;10.93;;;;;;;11.64;56.66;97327.06;5020046;28;20029;-65
2021/11/01 21:31:21;;;;;;;16.20;9.80;;;;;;;11.64;56.78;97327.06;5022143;28;20037;-67
2021/11/01 21:33:51;;;;;;;16.27;10.55;;;;;;;11.64;56.64;97327.06;5028044;28;20152;-67
2021/11/01 21:36:24;;;;;;;15.20;9.70;;;;;;;11.65;56.63;97322.34;5024046;28;20022;-67
2021/11/01 21:38:52;;;;;;;15.88;10.20;;;;;;;11.65;56.38;97319.63;5024792;28;20025;-67
2021/11/01 21:41:17;;;;;;;16.27;10.02;;;;;;;11.64;56.81;97321.56;5025971;28;20491;-67
2021/11/01 21:43:43;;;;;;;14.13;9.30;;;;;;;11.62;56.26;97321.09;5025155;28;20034;-68
2021/11/01 21:46:09;;;;;;;18.35;10.63;;;;;;;11.64;56.64;97316.06;5024876;28;20052;-67
2021/11/01 21:48:35;;;;;;;18.35;11.48;;;;;;;11.68;56.42;97318.94;5017242;28;20221;-66
2021/11/01 21:51:00;;;;;;;18.17;12.00;;;;;;;11.70;56.24;97317.50;5015413;28;20453;-65
2021/11/01 21:53:27;;;;;;;16.50;10.85;;;;;;;11.70;56.55;97309.25;5022882;28;20572;-63
2021/11/01 21:55:53;;;;;;;17.05;10.38;;;;;;;11.72;56.09;97311.66;5025521;28;20401;-63
2021/11/01 22:17:43;;;;;;;16.95;10.65;;;;;;;11.76;56.62;97291.47;5026921;28;20084;-65
2021/11/01 22:20:19;;;;;;;16.50;10.50;;;;;;;11.76;56.34;97294.19;5027881;28;20086;-65
2021/11/01 22:59:10;;;;;;;13.20;8.77;;;;;;;11.72;56.43;97243.00;5047646;28;20052;-64
2021/11/01 23:01:39;;;;;;;13.98;9.32;;;;;;;11.72;55.82;97241.06;5047902;28;20064;-64
2021/11/01 23:04:45;;;;;;;13.05;8.32;;;;;;;11.71;56.40;97244.13;5047718;28;20474;-64
2021/11/01 23:31:30;;;;;;;14.55;8.90;;;;;;;11.84;55.94;97225.78;5052650;28;20175;-64
2021/11/01 23:34:00;;;;;;;17.75;9.65;;;;;;;11.85;56.54;97216.41;5050367;28;20136;-65
2021/11/01 23:36:25;;;;;;;14.63;9.05;;;;;;;11.83;56.28;97222.25;5050310;28;20485;-64
2021/11/01 23:38:51;;;;;;;14.45;9.18;;;;;;;11.84;56.54;97221.09;5052007;28;20074;-64
2021/11/01 23:41:17;;;;;;;19.30;10.52;;;;;;;11.81;56.56;97208.03;5052077;28;20037;-65
2021/11/01 23:43:42;;;;;;;15.93;10.35;;;;;;;11.84;56.09;97209.28;5051915;28;20036;-64
2021/11/01 23:46:08;;;;;;;14.82;10.07;;;;;;;11.84;56.71;97209.28;5052672;28;20059;-64
2021/11/01 23:48:34;;;;;;;16.58;11.00;;;;;;;11.84;56.16;97215.59;5052278;28;20029;-65
2021/11/01 23:51:00;;;;;;;18.08;11.80;;;;;;;11.82;56.03;97209.66;5051770;28;20488;-64
2021/11/01 23:53:47;;;;;;;19.70;13.18;;;;;;;11.85;56.63;97210.91;5052482;28;20021;-65
2021/11/01 23:56:14;;;;;;;21.80;13.65;;;;;;;11.87;56.56;97211.38;5050772;28;20099;-64
2021/11/01 23:58:41;;;;;;;19.02;13.07;;;;;;;11.88;56.52;97212.97;5050608;28;20029;-64
